RYR1ZD LRCL-EGSS
Flight info
| Callsign | RYR1ZD |
|---|---|
| Flight time | 3h 3m |
| Altitude | 38000 |
| Route | ELROM DCT VERIG DCT PATAK DCT KATQA DCT RAPET DCT MASEK DCT ARPEG DCT NOGRO M40 RINIS |
| Aircraft | B738/M-SDE2E3FGHIRWXY/LB1 |
Departure
| Time | 2026-05-03 20:45 |
|---|---|
| Airport | Avram Iancu Cluj International Airport (LRCL) |
Arrival
| Time | 2026-05-03 23:48 |
|---|---|
| Airport | London Stansted Airport (EGSS) |
| Time | Latitude | Longitude | Altitude | Speed | Heading |
|---|---|---|---|---|---|
| 2026-05-03 20:22 | 46.78368 | 23.68948 | 1042 ft | 0 kts | 176° |
| 2026-05-03 20:35 | 46.78375 | 23.68948 | 1042 ft | 4 kts | 174° |
| 2026-05-03 20:36 | 46.78400 | 23.68940 | 1042 ft | 4 kts | 154° |
| 2026-05-03 20:36 | 46.78420 | 23.68918 | 1042 ft | 4 kts | 113° |
| 2026-05-03 20:36 | 46.78423 | 23.68894 | 1042 ft | 1 kts | 82° |
| 2026-05-03 20:36 | 46.78423 | 23.68890 | 1042 ft | 0 kts | 82° |
| 2026-05-03 20:40 | 46.78425 | 23.68904 | 1042 ft | 4 kts | 78° |
| 2026-05-03 20:40 | 46.78446 | 23.68938 | 1042 ft | 6 kts | 17° |
| 2026-05-03 20:40 | 46.78491 | 23.68926 | 1042 ft | 9 kts | 339° |
| 2026-05-03 20:41 | 46.78563 | 23.68893 | 1042 ft | 13 kts | 342° |
| 2026-05-03 20:41 | 46.78652 | 23.68866 | 1042 ft | 10 kts | 23° |
| 2026-05-03 20:41 | 46.78692 | 23.68959 | 1042 ft | 12 kts | 74° |
| 2026-05-03 20:41 | 46.78719 | 23.69090 | 1042 ft | 11 kts | 71° |
| 2026-05-03 20:42 | 46.78751 | 23.69211 | 1042 ft | 10 kts | 48° |
| 2026-05-03 20:42 | 46.78817 | 23.69212 | 1042 ft | 11 kts | 338° |
| 2026-05-03 20:42 | 46.78900 | 23.69174 | 1042 ft | 13 kts | 9° |
| 2026-05-03 20:42 | 46.78945 | 23.69286 | 1042 ft | 15 kts | 73° |
| 2026-05-03 20:43 | 46.78979 | 23.69447 | 1042 ft | 17 kts | 70° |
| 2026-05-03 20:43 | 46.78994 | 23.69594 | 1042 ft | 9 kts | 72° |
| 2026-05-03 20:43 | 46.79010 | 23.69598 | 1042 ft | 3 kts | 320° |
| 2026-05-03 20:43 | 46.79010 | 23.69566 | 1042 ft | 5 kts | 252° |
| 2026-05-03 20:44 | 46.79003 | 23.69538 | 1042 ft | 2 kts | 250° |
| 2026-05-03 20:44 | 46.78990 | 23.69488 | 1042 ft | 13 kts | 251° |
| 2026-05-03 20:44 | 46.78855 | 23.68890 | 1042 ft | 110 kts | 252° |
| 2026-05-03 20:44 | 46.78548 | 23.67469 | 1213 ft | 176 kts | 254° |
| 2026-05-03 20:45 | 46.78196 | 23.65784 | 2449 ft | 169 kts | 253° |
| 2026-05-03 20:45 | 46.77836 | 23.64158 | 3647 ft | 176 kts | 254° |
| 2026-05-03 20:45 | 46.77412 | 23.62314 | 4109 ft | 210 kts | 253° |
| 2026-05-03 20:45 | 46.76925 | 23.60211 | 4364 ft | 239 kts | 253° |
| 2026-05-03 20:46 | 46.76374 | 23.57834 | 4881 ft | 255 kts | 253° |
| 2026-05-03 20:46 | 46.75785 | 23.55292 | 5331 ft | 275 kts | 253° |
| 2026-05-03 20:46 | 46.75449 | 23.53440 | 5754 ft | 284 kts | 263° |
| 2026-05-03 20:46 | 46.75331 | 23.50539 | 6740 ft | 288 kts | 271° |
| 2026-05-03 20:47 | 46.75291 | 23.47595 | 7719 ft | 292 kts | 271° |
| 2026-05-03 20:47 | 46.75248 | 23.44608 | 8671 ft | 298 kts | 271° |
| 2026-05-03 20:47 | 46.75195 | 23.41552 | 9651 ft | 304 kts | 271° |
| 2026-05-03 20:47 | 46.75132 | 23.38478 | 10540 ft | 312 kts | 270° |
| 2026-05-03 20:48 | 46.75061 | 23.35199 | 10903 ft | 338 kts | 270° |
| 2026-05-03 20:48 | 46.74977 | 23.31661 | 11372 ft | 356 kts | 270° |
| 2026-05-03 20:48 | 46.74883 | 23.27951 | 11782 ft | 378 kts | 270° |
| 2026-05-03 20:48 | 46.74778 | 23.23979 | 12325 ft | 393 kts | 270° |
| 2026-05-03 20:49 | 46.74669 | 23.20025 | 13154 ft | 398 kts | 270° |
| 2026-05-03 20:49 | 46.74558 | 23.15963 | 13904 ft | 405 kts | 270° |
| 2026-05-03 20:49 | 46.74444 | 23.11823 | 14609 ft | 411 kts | 270° |
| 2026-05-03 20:49 | 46.74327 | 23.07641 | 15371 ft | 415 kts | 270° |
| 2026-05-03 20:50 | 46.74386 | 23.03431 | 16094 ft | 415 kts | 283° |
| 2026-05-03 20:50 | 46.75313 | 22.99488 | 16875 ft | 410 kts | 300° |
| 2026-05-03 20:50 | 46.76578 | 22.95752 | 17651 ft | 413 kts | 302° |
| 2026-05-03 20:50 | 46.77878 | 22.91999 | 18397 ft | 416 kts | 302° |
| 2026-05-03 20:51 | 46.79186 | 22.88216 | 19048 ft | 419 kts | 302° |
| 2026-05-03 20:51 | 46.80493 | 22.84403 | 19699 ft | 422 kts | 301° |
| 2026-05-03 20:51 | 46.81802 | 22.80546 | 20344 ft | 426 kts | 301° |
| 2026-05-03 20:51 | 46.83112 | 22.76656 | 20991 ft | 428 kts | 301° |
| 2026-05-03 20:52 | 46.84426 | 22.72731 | 21616 ft | 431 kts | 301° |
| 2026-05-03 20:52 | 46.85741 | 22.68790 | 22245 ft | 434 kts | 301° |
| 2026-05-03 20:52 | 46.87067 | 22.64805 | 22831 ft | 438 kts | 301° |
| 2026-05-03 20:52 | 46.88400 | 22.60788 | 23368 ft | 441 kts | 301° |
| 2026-05-03 20:53 | 46.89739 | 22.56750 | 23971 ft | 442 kts | 300° |
| 2026-05-03 20:53 | 46.91076 | 22.52705 | 24478 ft | 443 kts | 300° |
| 2026-05-03 20:53 | 46.92422 | 22.48633 | 24937 ft | 446 kts | 300° |
| 2026-05-03 20:53 | 46.93772 | 22.44541 | 25371 ft | 449 kts | 300° |
| 2026-05-03 20:54 | 46.95129 | 22.40424 | 25800 ft | 452 kts | 300° |
| 2026-05-03 20:54 | 46.97863 | 22.32111 | 26640 ft | 456 kts | 300° |
| 2026-05-03 20:54 | 46.99238 | 22.27917 | 27059 ft | 459 kts | 300° |
| 2026-05-03 20:55 | 47.00622 | 22.23690 | 27469 ft | 460 kts | 300° |
| 2026-05-03 20:55 | 47.02005 | 22.19460 | 27929 ft | 461 kts | 300° |
| 2026-05-03 20:55 | 47.03373 | 22.15265 | 28299 ft | 463 kts | 300° |
| 2026-05-03 20:55 | 47.04766 | 22.10990 | 28640 ft | 466 kts | 300° |
| 2026-05-03 20:56 | 47.06163 | 22.06697 | 28984 ft | 469 kts | 300° |
| 2026-05-03 20:56 | 47.07589 | 22.02305 | 29353 ft | 470 kts | 300° |
| 2026-05-03 20:56 | 47.08971 | 21.98038 | 29833 ft | 469 kts | 299° |
| 2026-05-03 20:56 | 47.10366 | 21.93724 | 30393 ft | 466 kts | 299° |
| 2026-05-03 20:57 | 47.11748 | 21.89444 | 30856 ft | 463 kts | 299° |
| 2026-05-03 20:57 | 47.13123 | 21.85179 | 31297 ft | 461 kts | 299° |
| 2026-05-03 20:57 | 47.14494 | 21.80926 | 31676 ft | 461 kts | 299° |
| 2026-05-03 20:57 | 47.15865 | 21.76666 | 32043 ft | 461 kts | 299° |
| 2026-05-03 20:58 | 47.17232 | 21.72409 | 32441 ft | 460 kts | 299° |
| 2026-05-03 20:58 | 47.18644 | 21.68207 | 32863 ft | 457 kts | 301° |
| 2026-05-03 20:58 | 47.20127 | 21.64089 | 33259 ft | 456 kts | 302° |
| 2026-05-03 20:58 | 47.21643 | 21.59992 | 33638 ft | 455 kts | 302° |
| 2026-05-03 20:59 | 47.23158 | 21.55914 | 34001 ft | 454 kts | 302° |
| 2026-05-03 20:59 | 47.24661 | 21.51843 | 34477 ft | 450 kts | 302° |
| 2026-05-03 20:59 | 47.26140 | 21.47804 | 34822 ft | 449 kts | 302° |
| 2026-05-03 20:59 | 47.27620 | 21.43735 | 35034 ft | 451 kts | 302° |
| 2026-05-03 21:00 | 47.29097 | 21.39648 | 35270 ft | 452 kts | 301° |
| 2026-05-03 21:00 | 47.30075 | 21.36935 | 35475 ft | 452 kts | 301° |
| 2026-05-03 21:00 | 47.32033 | 21.31478 | 35926 ft | 450 kts | 301° |
| 2026-05-03 21:00 | 47.33493 | 21.27400 | 36215 ft | 450 kts | 301° |
| 2026-05-03 21:01 | 47.34949 | 21.23330 | 36473 ft | 451 kts | 301° |
| 2026-05-03 21:01 | 47.36409 | 21.19241 | 36744 ft | 450 kts | 301° |
| 2026-05-03 21:01 | 47.37861 | 21.15169 | 37123 ft | 447 kts | 301° |
| 2026-05-03 21:01 | 47.39306 | 21.11110 | 37418 ft | 447 kts | 301° |
| 2026-05-03 21:02 | 47.40752 | 21.07045 | 37649 ft | 448 kts | 301° |
| 2026-05-03 21:02 | 47.42199 | 21.02971 | 37893 ft | 448 kts | 301° |
| 2026-05-03 21:02 | 47.43643 | 20.98897 | 38159 ft | 448 kts | 301° |
| 2026-05-03 21:02 | 47.45075 | 20.94856 | 38141 ft | 452 kts | 301° |
| 2026-05-03 21:03 | 47.47980 | 20.86630 | 38143 ft | 451 kts | 301° |
| 2026-05-03 21:03 | 47.50856 | 20.78453 | 38139 ft | 446 kts | 301° |
| 2026-05-03 21:04 | 47.53707 | 20.70329 | 38149 ft | 443 kts | 301° |
| 2026-05-03 21:04 | 47.56537 | 20.62242 | 38147 ft | 442 kts | 301° |
| 2026-05-03 21:05 | 47.59360 | 20.54150 | 38151 ft | 442 kts | 301° |
| 2026-05-03 21:05 | 47.62177 | 20.46051 | 38150 ft | 442 kts | 301° |
| 2026-05-03 21:06 | 47.64993 | 20.37927 | 38151 ft | 443 kts | 301° |
| 2026-05-03 21:06 | 47.67808 | 20.29781 | 38151 ft | 444 kts | 301° |
| 2026-05-03 21:07 | 47.70627 | 20.21599 | 38148 ft | 446 kts | 301° |
| 2026-05-03 21:07 | 47.73445 | 20.13391 | 38140 ft | 446 kts | 300° |
| 2026-05-03 21:08 | 47.76260 | 20.05166 | 38149 ft | 447 kts | 300° |
| 2026-05-03 21:08 | 47.79072 | 19.96926 | 38148 ft | 447 kts | 300° |
| 2026-05-03 21:09 | 47.81881 | 19.88668 | 38153 ft | 447 kts | 300° |
| 2026-05-03 21:09 | 47.84683 | 19.80402 | 38152 ft | 447 kts | 300° |
| 2026-05-03 21:10 | 47.87473 | 19.72145 | 38144 ft | 445 kts | 300° |
| 2026-05-03 21:10 | 47.90229 | 19.63965 | 38154 ft | 444 kts | 300° |
| 2026-05-03 21:11 | 47.92992 | 19.55738 | 38153 ft | 443 kts | 300° |
| 2026-05-03 21:11 | 47.95739 | 19.47530 | 38155 ft | 442 kts | 300° |
| 2026-05-03 21:12 | 47.98480 | 19.39317 | 38149 ft | 442 kts | 299° |
| 2026-05-03 21:12 | 48.01209 | 19.31109 | 38156 ft | 441 kts | 299° |
| 2026-05-03 21:13 | 48.03927 | 19.22913 | 38158 ft | 440 kts | 299° |
| 2026-05-03 21:13 | 48.06636 | 19.14726 | 38156 ft | 439 kts | 300° |
| 2026-05-03 21:14 | 48.10008 | 19.07208 | 38150 ft | 434 kts | 310° |
| 2026-05-03 21:14 | 48.13752 | 19.00119 | 38158 ft | 434 kts | 310° |
| 2026-05-03 21:15 | 48.17484 | 18.93016 | 38152 ft | 434 kts | 310° |
| 2026-05-03 21:15 | 48.21194 | 18.85862 | 38151 ft | 435 kts | 310° |
| 2026-05-03 21:16 | 48.24888 | 18.78685 | 38153 ft | 435 kts | 310° |
| 2026-05-03 21:16 | 48.28586 | 18.71472 | 38142 ft | 436 kts | 309° |
| 2026-05-03 21:17 | 48.31652 | 18.65479 | 38145 ft | 436 kts | 309° |
| 2026-05-03 21:17 | 48.35963 | 18.57030 | 38150 ft | 436 kts | 309° |
| 2026-05-03 21:18 | 48.39651 | 18.49782 | 38140 ft | 436 kts | 309° |
| 2026-05-03 21:18 | 48.43337 | 18.42518 | 38148 ft | 437 kts | 309° |
| 2026-05-03 21:19 | 48.47020 | 18.35242 | 38136 ft | 436 kts | 309° |
| 2026-05-03 21:19 | 48.50688 | 18.27974 | 38144 ft | 436 kts | 309° |
| 2026-05-03 21:20 | 48.54370 | 18.20661 | 38464 ft | 437 kts | 308° |
| 2026-05-03 21:20 | 48.56203 | 18.17011 | 38802 ft | 435 kts | 308° |
| 2026-05-03 21:20 | 48.58003 | 18.13424 | 39063 ft | 433 kts | 308° |
| 2026-05-03 21:21 | 48.59820 | 18.09797 | 39269 ft | 433 kts | 308° |
| 2026-05-03 21:21 | 48.61637 | 18.06166 | 39405 ft | 434 kts | 308° |
| 2026-05-03 21:21 | 48.63460 | 18.02517 | 39535 ft | 436 kts | 308° |
| 2026-05-03 21:21 | 48.65278 | 17.98875 | 39708 ft | 436 kts | 308° |
| 2026-05-03 21:22 | 48.67102 | 17.95215 | 39899 ft | 435 kts | 308° |
| 2026-05-03 21:22 | 48.68925 | 17.91551 | 40060 ft | 435 kts | 308° |
| 2026-05-03 21:22 | 48.72585 | 17.84183 | 40099 ft | 439 kts | 308° |
| 2026-05-03 21:23 | 48.76246 | 17.76789 | 40108 ft | 437 kts | 308° |
| 2026-05-03 21:23 | 48.79879 | 17.69433 | 40092 ft | 435 kts | 307° |
| 2026-05-03 21:24 | 48.83495 | 17.62092 | 40099 ft | 433 kts | 307° |
| 2026-05-03 21:24 | 48.87091 | 17.54771 | 40103 ft | 432 kts | 307° |
| 2026-05-03 21:25 | 48.90682 | 17.47440 | 40099 ft | 433 kts | 307° |
| 2026-05-03 21:25 | 48.94275 | 17.40085 | 40094 ft | 433 kts | 307° |
| 2026-05-03 21:26 | 48.97862 | 17.32723 | 40092 ft | 434 kts | 307° |
| 2026-05-03 21:26 | 49.01433 | 17.25294 | 40083 ft | 436 kts | 303° |
| 2026-05-03 21:27 | 49.04051 | 17.16962 | 40090 ft | 438 kts | 292° |
| 2026-05-03 21:27 | 49.06279 | 17.08310 | 40083 ft | 439 kts | 292° |
| 2026-05-03 21:28 | 49.08517 | 16.99629 | 40079 ft | 440 kts | 292° |
| 2026-05-03 21:28 | 49.10776 | 16.90959 | 40071 ft | 440 kts | 292° |
| 2026-05-03 21:29 | 49.13041 | 16.82288 | 40049 ft | 440 kts | 292° |
| 2026-05-03 21:29 | 49.15303 | 16.73614 | 40053 ft | 439 kts | 292° |
| 2026-05-03 21:30 | 49.17554 | 16.64949 | 40043 ft | 439 kts | 292° |
| 2026-05-03 21:30 | 49.19795 | 16.56286 | 40047 ft | 438 kts | 291° |
| 2026-05-03 21:31 | 49.22024 | 16.47635 | 40063 ft | 437 kts | 291° |
| 2026-05-03 21:31 | 49.24243 | 16.38989 | 40059 ft | 437 kts | 291° |
| 2026-05-03 21:32 | 49.26441 | 16.30396 | 40071 ft | 436 kts | 291° |
| 2026-05-03 21:32 | 49.28641 | 16.21761 | 40071 ft | 435 kts | 291° |
| 2026-05-03 21:33 | 49.30835 | 16.13115 | 40055 ft | 435 kts | 291° |
| 2026-05-03 21:33 | 49.33019 | 16.04474 | 40054 ft | 435 kts | 291° |
| 2026-05-03 21:34 | 49.35198 | 15.95822 | 40056 ft | 434 kts | 291° |
| 2026-05-03 21:34 | 49.37002 | 15.88634 | 40050 ft | 435 kts | 291° |
| 2026-05-03 21:35 | 49.39179 | 15.79927 | 40045 ft | 434 kts | 291° |
| 2026-05-03 21:35 | 49.41322 | 15.71323 | 40053 ft | 434 kts | 290° |
| 2026-05-03 21:36 | 49.43474 | 15.62653 | 40041 ft | 434 kts | 290° |
| 2026-05-03 21:36 | 49.45618 | 15.53976 | 40023 ft | 434 kts | 290° |
| 2026-05-03 21:37 | 49.47755 | 15.45299 | 40026 ft | 434 kts | 290° |
| 2026-05-03 21:37 | 49.49883 | 15.36621 | 40008 ft | 434 kts | 290° |
| 2026-05-03 21:38 | 49.52007 | 15.27927 | 40001 ft | 434 kts | 290° |
| 2026-05-03 21:38 | 49.54120 | 15.19240 | 40000 ft | 434 kts | 290° |
| 2026-05-03 21:39 | 49.56228 | 15.10543 | 40002 ft | 433 kts | 290° |
| 2026-05-03 21:39 | 49.58329 | 15.01839 | 39990 ft | 433 kts | 290° |
| 2026-05-03 21:40 | 49.60421 | 14.93142 | 39993 ft | 433 kts | 289° |
| 2026-05-03 21:40 | 49.62510 | 14.84420 | 39997 ft | 433 kts | 289° |
| 2026-05-03 21:41 | 49.64589 | 14.75703 | 39999 ft | 433 kts | 289° |
| 2026-05-03 21:41 | 49.66664 | 14.66969 | 39984 ft | 433 kts | 289° |
| 2026-05-03 21:42 | 49.68730 | 14.58235 | 39986 ft | 434 kts | 289° |
| 2026-05-03 21:42 | 49.70793 | 14.49483 | 39985 ft | 434 kts | 289° |
| 2026-05-03 21:43 | 49.72854 | 14.40703 | 39985 ft | 435 kts | 289° |
| 2026-05-03 21:43 | 49.74914 | 14.31889 | 39972 ft | 436 kts | 289° |
| 2026-05-03 21:44 | 49.76971 | 14.23054 | 39971 ft | 437 kts | 289° |
| 2026-05-03 21:44 | 49.79010 | 14.14259 | 39971 ft | 438 kts | 288° |
| 2026-05-03 21:45 | 49.81061 | 14.05379 | 39966 ft | 438 kts | 288° |
| 2026-05-03 21:45 | 49.83109 | 13.96472 | 39963 ft | 439 kts | 288° |
| 2026-05-03 21:46 | 49.85148 | 13.87564 | 39957 ft | 439 kts | 288° |
| 2026-05-03 21:46 | 49.87180 | 13.78653 | 39958 ft | 439 kts | 288° |
| 2026-05-03 21:47 | 49.89208 | 13.69724 | 39958 ft | 439 kts | 288° |
| 2026-05-03 21:47 | 49.91226 | 13.60796 | 39948 ft | 438 kts | 288° |
| 2026-05-03 21:48 | 49.93234 | 13.51877 | 39945 ft | 438 kts | 287° |
| 2026-05-03 21:48 | 49.95234 | 13.42958 | 39941 ft | 437 kts | 287° |
| 2026-05-03 21:49 | 49.97220 | 13.34062 | 39960 ft | 436 kts | 287° |
| 2026-05-03 21:49 | 49.99199 | 13.25162 | 39954 ft | 435 kts | 287° |
| 2026-05-03 21:50 | 50.01165 | 13.16275 | 39952 ft | 435 kts | 287° |
| 2026-05-03 21:50 | 50.03125 | 13.07384 | 39984 ft | 434 kts | 287° |
| 2026-05-03 21:51 | 50.05075 | 12.98498 | 39985 ft | 434 kts | 287° |
| 2026-05-03 21:51 | 50.07019 | 12.89600 | 39990 ft | 434 kts | 287° |
| 2026-05-03 21:52 | 50.08957 | 12.80692 | 39992 ft | 434 kts | 287° |
| 2026-05-03 21:52 | 50.10874 | 12.71843 | 39994 ft | 434 kts | 287° |
| 2026-05-03 21:53 | 50.12801 | 12.62912 | 39993 ft | 435 kts | 286° |
| 2026-05-03 21:53 | 50.14721 | 12.53969 | 39993 ft | 435 kts | 286° |
| 2026-05-03 21:54 | 50.16637 | 12.45011 | 39993 ft | 435 kts | 286° |
| 2026-05-03 21:54 | 50.18546 | 12.36047 | 39987 ft | 436 kts | 286° |
| 2026-05-03 21:55 | 50.20444 | 12.27063 | 39983 ft | 436 kts | 286° |
| 2026-05-03 21:55 | 50.22331 | 12.18050 | 40005 ft | 437 kts | 286° |
| 2026-05-03 21:56 | 50.24212 | 12.09025 | 40013 ft | 437 kts | 285° |
| 2026-05-03 21:56 | 50.26087 | 11.99991 | 40030 ft | 438 kts | 285° |
| 2026-05-03 21:57 | 50.27960 | 11.90929 | 40025 ft | 438 kts | 285° |
| 2026-05-03 21:57 | 50.29823 | 11.81879 | 40022 ft | 438 kts | 285° |
| 2026-05-03 21:58 | 50.31683 | 11.72801 | 40023 ft | 438 kts | 285° |
| 2026-05-03 21:58 | 50.33533 | 11.63727 | 40018 ft | 438 kts | 285° |
| 2026-05-03 21:59 | 50.35376 | 11.54650 | 40025 ft | 437 kts | 285° |
| 2026-05-03 21:59 | 50.37211 | 11.45568 | 40011 ft | 437 kts | 285° |
| 2026-05-03 22:00 | 50.39035 | 11.36498 | 40003 ft | 436 kts | 285° |
| 2026-05-03 22:00 | 50.40849 | 11.27435 | 39987 ft | 436 kts | 285° |
| 2026-05-03 22:01 | 50.42643 | 11.18429 | 39985 ft | 435 kts | 284° |
| 2026-05-03 22:01 | 50.44449 | 11.09323 | 39995 ft | 434 kts | 284° |
| 2026-05-03 22:02 | 50.46231 | 11.00298 | 39989 ft | 433 kts | 284° |
| 2026-05-03 22:02 | 50.47992 | 10.91337 | 39988 ft | 432 kts | 284° |
| 2026-05-03 22:03 | 50.49754 | 10.82326 | 39996 ft | 431 kts | 284° |
| 2026-05-03 22:03 | 50.51505 | 10.73330 | 39988 ft | 430 kts | 284° |
| 2026-05-03 22:04 | 50.53248 | 10.64334 | 39994 ft | 430 kts | 284° |
| 2026-05-03 22:04 | 50.54984 | 10.55329 | 39990 ft | 430 kts | 284° |
| 2026-05-03 22:05 | 50.56712 | 10.46322 | 39993 ft | 430 kts | 284° |
| 2026-05-03 22:05 | 50.58435 | 10.37300 | 39992 ft | 431 kts | 284° |
| 2026-05-03 22:06 | 50.60151 | 10.28273 | 40007 ft | 431 kts | 283° |
| 2026-05-03 22:06 | 50.61865 | 10.19213 | 40002 ft | 432 kts | 283° |
| 2026-05-03 22:07 | 50.63573 | 10.10141 | 39999 ft | 433 kts | 283° |
| 2026-05-03 22:07 | 50.65279 | 10.01036 | 40000 ft | 433 kts | 283° |
| 2026-05-03 22:08 | 50.66978 | 9.91923 | 39992 ft | 434 kts | 283° |
| 2026-05-03 22:08 | 50.68673 | 9.82784 | 40010 ft | 434 kts | 283° |
| 2026-05-03 22:09 | 50.70362 | 9.73633 | 39995 ft | 435 kts | 283° |
| 2026-05-03 22:10 | 50.72892 | 9.59880 | 39996 ft | 436 kts | 284° |
| 2026-05-03 22:10 | 50.74860 | 9.50813 | 40011 ft | 437 kts | 287° |
| 2026-05-03 22:11 | 50.76969 | 9.41817 | 39994 ft | 437 kts | 287° |
| 2026-05-03 22:11 | 50.79059 | 9.32798 | 39999 ft | 437 kts | 287° |
| 2026-05-03 22:12 | 50.81105 | 9.23811 | 39994 ft | 437 kts | 286° |
| 2026-05-03 22:12 | 50.83157 | 9.14709 | 39997 ft | 437 kts | 286° |
| 2026-05-03 22:13 | 50.85176 | 9.05712 | 39998 ft | 437 kts | 286° |
| 2026-05-03 22:13 | 50.87199 | 8.96656 | 39996 ft | 436 kts | 286° |
| 2026-05-03 22:14 | 50.89216 | 8.87597 | 39996 ft | 436 kts | 286° |
| 2026-05-03 22:14 | 50.91227 | 8.78521 | 39997 ft | 436 kts | 286° |
| 2026-05-03 22:15 | 50.93228 | 8.69452 | 39999 ft | 436 kts | 286° |
| 2026-05-03 22:15 | 50.95222 | 8.60370 | 39998 ft | 436 kts | 285° |
| 2026-05-03 22:16 | 50.97209 | 8.51286 | 40015 ft | 436 kts | 285° |
| 2026-05-03 22:16 | 50.99188 | 8.42195 | 40001 ft | 436 kts | 285° |
| 2026-05-03 22:17 | 51.01165 | 8.33081 | 40006 ft | 437 kts | 285° |
| 2026-05-03 22:17 | 51.03118 | 8.23943 | 40004 ft | 437 kts | 285° |
| 2026-05-03 22:18 | 51.05034 | 8.14780 | 40009 ft | 437 kts | 285° |
| 2026-05-03 22:18 | 51.06944 | 8.05598 | 40015 ft | 438 kts | 285° |
| 2026-05-03 22:19 | 51.08853 | 7.96400 | 40000 ft | 438 kts | 285° |
| 2026-05-03 22:19 | 51.10758 | 7.87190 | 40000 ft | 438 kts | 285° |
| 2026-05-03 22:20 | 51.12655 | 7.77974 | 39993 ft | 438 kts | 285° |
| 2026-05-03 22:20 | 51.14545 | 7.68755 | 39995 ft | 438 kts | 285° |
| 2026-05-03 22:21 | 51.16417 | 7.59581 | 40004 ft | 438 kts | 285° |
| 2026-05-03 22:21 | 51.18293 | 7.50339 | 39992 ft | 438 kts | 284° |
| 2026-05-03 22:22 | 51.20158 | 7.41114 | 39978 ft | 437 kts | 284° |
| 2026-05-03 22:22 | 51.22015 | 7.31883 | 39981 ft | 437 kts | 284° |
| 2026-05-03 22:23 | 51.23565 | 7.24143 | 39974 ft | 436 kts | 284° |
| 2026-05-03 22:23 | 51.25384 | 7.15018 | 39988 ft | 436 kts | 284° |
| 2026-05-03 22:24 | 51.27214 | 7.05798 | 39975 ft | 436 kts | 284° |
| 2026-05-03 22:24 | 51.29036 | 6.96572 | 39969 ft | 436 kts | 284° |
| 2026-05-03 22:25 | 51.30852 | 6.87338 | 39966 ft | 436 kts | 284° |
| 2026-05-03 22:25 | 51.32659 | 6.78101 | 39964 ft | 435 kts | 284° |
| 2026-05-03 22:26 | 51.34457 | 6.68863 | 39970 ft | 435 kts | 283° |
| 2026-05-03 22:26 | 51.36251 | 6.59603 | 39961 ft | 437 kts | 283° |
| 2026-05-03 22:27 | 51.38043 | 6.50309 | 39958 ft | 438 kts | 283° |
| 2026-05-03 22:27 | 51.39836 | 6.40965 | 39954 ft | 440 kts | 283° |
| 2026-05-03 22:28 | 51.41629 | 6.31573 | 39950 ft | 441 kts | 283° |
| 2026-05-03 22:28 | 51.43419 | 6.22154 | 39954 ft | 443 kts | 283° |
| 2026-05-03 22:29 | 51.45207 | 6.12693 | 39940 ft | 444 kts | 283° |
| 2026-05-03 22:29 | 51.46994 | 6.03190 | 39939 ft | 446 kts | 283° |
| 2026-05-03 22:30 | 51.48778 | 5.93661 | 39937 ft | 446 kts | 283° |
| 2026-05-03 22:30 | 51.50554 | 5.84122 | 39939 ft | 446 kts | 283° |
| 2026-05-03 22:31 | 51.52323 | 5.74571 | 39950 ft | 446 kts | 283° |
| 2026-05-03 22:31 | 51.54085 | 5.65009 | 39943 ft | 447 kts | 283° |
| 2026-05-03 22:32 | 51.55828 | 5.55499 | 39939 ft | 446 kts | 283° |
| 2026-05-03 22:32 | 51.56704 | 5.50709 | 39921 ft | 434 kts | 283° |
| 2026-05-03 22:32 | 51.57530 | 5.46202 | 39919 ft | 418 kts | 282° |
| 2026-05-03 22:32 | 51.58334 | 5.41796 | 39917 ft | 403 kts | 282° |
| 2026-05-03 22:33 | 51.59111 | 5.37523 | 39926 ft | 395 kts | 282° |
| 2026-05-03 22:33 | 51.60636 | 5.29054 | 39964 ft | 395 kts | 282° |
| 2026-05-03 22:34 | 51.62162 | 5.20527 | 39969 ft | 398 kts | 282° |
| 2026-05-03 22:34 | 51.63696 | 5.11942 | 39973 ft | 401 kts | 282° |
| 2026-05-03 22:35 | 51.65235 | 5.03292 | 39976 ft | 404 kts | 282° |
| 2026-05-03 22:35 | 51.66781 | 4.94572 | 39973 ft | 406 kts | 282° |
| 2026-05-03 22:36 | 51.68327 | 4.85805 | 39967 ft | 408 kts | 282° |
| 2026-05-03 22:36 | 51.69875 | 4.76987 | 39939 ft | 409 kts | 282° |
| 2026-05-03 22:37 | 51.71405 | 4.68226 | 39941 ft | 409 kts | 282° |
| 2026-05-03 22:37 | 51.72940 | 4.59398 | 39934 ft | 409 kts | 282° |
| 2026-05-03 22:38 | 51.74463 | 4.50589 | 39935 ft | 407 kts | 281° |
| 2026-05-03 22:38 | 51.75975 | 4.41802 | 39932 ft | 405 kts | 281° |
| 2026-05-03 22:39 | 51.77471 | 4.33064 | 39939 ft | 403 kts | 281° |
| 2026-05-03 22:39 | 51.78955 | 4.24350 | 39935 ft | 402 kts | 281° |
| 2026-05-03 22:40 | 51.80427 | 4.15665 | 39941 ft | 400 kts | 281° |
| 2026-05-03 22:40 | 51.81888 | 4.06998 | 39934 ft | 399 kts | 281° |
| 2026-05-03 22:41 | 51.83341 | 3.98334 | 39937 ft | 399 kts | 281° |
| 2026-05-03 22:41 | 51.84786 | 3.89678 | 39936 ft | 399 kts | 281° |
| 2026-05-03 22:42 | 51.86228 | 3.80993 | 39945 ft | 400 kts | 281° |
| 2026-05-03 22:42 | 51.87667 | 3.72281 | 39938 ft | 401 kts | 281° |
| 2026-05-03 22:43 | 51.89104 | 3.63543 | 39938 ft | 402 kts | 281° |
| 2026-05-03 22:43 | 51.90537 | 3.54780 | 39937 ft | 403 kts | 281° |
| 2026-05-03 22:44 | 51.91957 | 3.46057 | 39939 ft | 403 kts | 281° |
| 2026-05-03 22:44 | 51.93380 | 3.37266 | 39944 ft | 404 kts | 281° |
| 2026-05-03 22:45 | 51.94800 | 3.28449 | 39938 ft | 404 kts | 281° |
| 2026-05-03 22:45 | 51.96215 | 3.19620 | 39936 ft | 405 kts | 281° |
| 2026-05-03 22:46 | 51.98428 | 3.11234 | 39934 ft | 414 kts | 305° |
| 2026-05-03 22:46 | 52.00494 | 3.07937 | 39923 ft | 421 kts | 320° |
| 2026-05-03 22:46 | 52.03062 | 3.05602 | 39933 ft | 427 kts | 336° |
| 2026-05-03 22:46 | 52.05963 | 3.04499 | 39915 ft | 434 kts | 354° |
| 2026-05-03 22:47 | 52.08979 | 3.04817 | 39918 ft | 438 kts | 12° |
| 2026-05-03 22:47 | 52.11827 | 3.06577 | 39924 ft | 440 kts | 30° |
| 2026-05-03 22:47 | 52.14232 | 3.09626 | 39927 ft | 439 kts | 49° |
| 2026-05-03 22:47 | 52.15975 | 3.13661 | 39927 ft | 436 kts | 66° |
| 2026-05-03 22:48 | 52.16928 | 3.18311 | 39938 ft | 432 kts | 83° |
| 2026-05-03 22:48 | 52.17117 | 3.23150 | 39923 ft | 426 kts | 99° |
| 2026-05-03 22:48 | 52.16559 | 3.27857 | 39955 ft | 422 kts | 108° |
| 2026-05-03 22:49 | 52.15043 | 3.37108 | 39942 ft | 425 kts | 108° |
| 2026-05-03 22:49 | 52.13550 | 3.46455 | 39922 ft | 428 kts | 108° |
| 2026-05-03 22:50 | 52.11900 | 3.55677 | 39910 ft | 424 kts | 123° |
| 2026-05-03 22:50 | 52.10185 | 3.59474 | 39951 ft | 414 kts | 140° |
| 2026-05-03 22:50 | 52.07925 | 3.62286 | 39939 ft | 407 kts | 155° |
| 2026-05-03 22:50 | 52.05340 | 3.64014 | 39941 ft | 400 kts | 169° |
| 2026-05-03 22:51 | 52.02605 | 3.64594 | 39936 ft | 395 kts | 184° |
| 2026-05-03 22:51 | 51.99899 | 3.63994 | 39940 ft | 391 kts | 199° |
| 2026-05-03 22:51 | 51.97409 | 3.62274 | 39942 ft | 389 kts | 212° |
| 2026-05-03 22:51 | 51.95287 | 3.59570 | 39943 ft | 389 kts | 226° |
| 2026-05-03 22:52 | 51.93667 | 3.56056 | 39938 ft | 391 kts | 240° |
| 2026-05-03 22:52 | 51.92657 | 3.51955 | 39937 ft | 395 kts | 253° |
| 2026-05-03 22:52 | 51.92236 | 3.47562 | 39936 ft | 399 kts | 266° |
| 2026-05-03 22:52 | 51.92505 | 3.43071 | 39942 ft | 404 kts | 278° |
| 2026-05-03 22:53 | 51.93167 | 3.38642 | 39946 ft | 405 kts | 281° |
| 2026-05-03 22:53 | 51.94637 | 3.29814 | 39937 ft | 405 kts | 281° |
| 2026-05-03 22:54 | 51.96031 | 3.20965 | 39931 ft | 405 kts | 280° |
| 2026-05-03 22:54 | 51.97852 | 3.12347 | 39913 ft | 412 kts | 301° |
| 2026-05-03 22:54 | 51.99760 | 3.08852 | 39927 ft | 419 kts | 316° |
| 2026-05-03 22:55 | 52.02201 | 3.06252 | 39934 ft | 424 kts | 332° |
| 2026-05-03 22:55 | 52.05023 | 3.04769 | 39923 ft | 431 kts | 348° |
| 2026-05-03 22:55 | 52.08025 | 3.04643 | 39919 ft | 435 kts | 6° |
| 2026-05-03 22:55 | 52.10937 | 3.05961 | 39918 ft | 438 kts | 25° |
| 2026-05-03 22:56 | 52.13497 | 3.08641 | 39921 ft | 438 kts | 43° |
| 2026-05-03 22:56 | 52.15450 | 3.12418 | 39929 ft | 436 kts | 61° |
| 2026-05-03 22:56 | 52.16632 | 3.16915 | 39938 ft | 432 kts | 78° |
| 2026-05-03 22:56 | 52.17047 | 3.21725 | 39936 ft | 428 kts | 94° |
| 2026-05-03 22:57 | 52.16661 | 3.26478 | 39951 ft | 422 kts | 107° |
| 2026-05-03 22:57 | 52.15168 | 3.35740 | 39943 ft | 424 kts | 108° |
| 2026-05-03 22:58 | 52.13661 | 3.45075 | 39927 ft | 428 kts | 108° |
| 2026-05-03 22:58 | 52.12126 | 3.54456 | 39921 ft | 428 kts | 117° |
| 2026-05-03 22:58 | 52.10591 | 3.58504 | 39950 ft | 417 kts | 136° |
| 2026-05-03 22:59 | 52.08438 | 3.61558 | 39933 ft | 410 kts | 152° |
| 2026-05-03 22:59 | 52.05904 | 3.63541 | 39944 ft | 403 kts | 166° |
| 2026-05-03 22:59 | 52.03175 | 3.64386 | 39936 ft | 398 kts | 181° |
| 2026-05-03 22:59 | 52.00439 | 3.64040 | 39937 ft | 393 kts | 195° |
| 2026-05-03 23:00 | 51.97878 | 3.62540 | 39944 ft | 391 kts | 210° |
| 2026-05-03 23:00 | 51.95666 | 3.60016 | 39940 ft | 390 kts | 224° |
| 2026-05-03 23:00 | 51.93936 | 3.56635 | 39937 ft | 392 kts | 238° |
| 2026-05-03 23:00 | 51.92805 | 3.52619 | 39934 ft | 394 kts | 251° |
| 2026-05-03 23:01 | 51.92280 | 3.48255 | 39941 ft | 398 kts | 263° |
| 2026-05-03 23:01 | 51.92425 | 3.43762 | 39937 ft | 403 kts | 277° |
| 2026-05-03 23:01 | 51.93060 | 3.39332 | 39950 ft | 405 kts | 281° |
| 2026-05-03 23:02 | 51.94513 | 3.30577 | 39940 ft | 404 kts | 281° |
| 2026-05-03 23:02 | 51.95909 | 3.21759 | 39933 ft | 403 kts | 280° |
| 2026-05-03 23:03 | 51.97573 | 3.13086 | 39921 ft | 409 kts | 298° |
| 2026-05-03 23:03 | 51.99356 | 3.09462 | 39930 ft | 416 kts | 314° |
| 2026-05-03 23:03 | 52.01699 | 3.06680 | 39931 ft | 422 kts | 329° |
| 2026-05-03 23:03 | 52.04450 | 3.04960 | 39924 ft | 428 kts | 345° |
| 2026-05-03 23:04 | 52.07427 | 3.04549 | 39921 ft | 433 kts | 2° |
| 2026-05-03 23:04 | 52.10378 | 3.05576 | 39927 ft | 437 kts | 21° |
| 2026-05-03 23:04 | 52.13023 | 3.07988 | 39930 ft | 438 kts | 39° |
| 2026-05-03 23:04 | 52.15116 | 3.11560 | 39929 ft | 436 kts | 57° |
| 2026-05-03 23:05 | 52.16468 | 3.15946 | 39938 ft | 433 kts | 75° |
| 2026-05-03 23:05 | 52.17036 | 3.20717 | 39945 ft | 429 kts | 90° |
| 2026-05-03 23:05 | 52.16812 | 3.25498 | 39937 ft | 423 kts | 106° |
| 2026-05-03 23:06 | 52.15346 | 3.34781 | 39946 ft | 425 kts | 109° |
| 2026-05-03 23:06 | 52.13826 | 3.44127 | 39937 ft | 429 kts | 108° |
| 2026-05-03 23:07 | 52.12333 | 3.53562 | 39931 ft | 430 kts | 113° |
| 2026-05-03 23:07 | 52.10962 | 3.57791 | 39939 ft | 420 kts | 133° |
| 2026-05-03 23:07 | 52.08898 | 3.61067 | 39933 ft | 412 kts | 149° |
| 2026-05-03 23:07 | 52.06409 | 3.63275 | 39944 ft | 405 kts | 163° |
| 2026-05-03 23:08 | 52.03694 | 3.64341 | 39942 ft | 400 kts | 178° |
| 2026-05-03 23:08 | 52.00938 | 3.64211 | 39940 ft | 395 kts | 193° |
| 2026-05-03 23:08 | 51.98332 | 3.62913 | 39944 ft | 392 kts | 207° |
| 2026-05-03 23:08 | 51.96042 | 3.60559 | 39946 ft | 390 kts | 221° |
| 2026-05-03 23:09 | 51.94212 | 3.57317 | 39935 ft | 391 kts | 235° |
| 2026-05-03 23:09 | 51.92965 | 3.53399 | 39930 ft | 394 kts | 249° |
| 2026-05-03 23:09 | 51.92335 | 3.49076 | 39940 ft | 396 kts | 261° |
| 2026-05-03 23:09 | 51.92336 | 3.44655 | 39927 ft | 402 kts | 275° |
| 2026-05-03 23:10 | 51.92928 | 3.40162 | 39958 ft | 403 kts | 280° |
| 2026-05-03 23:10 | 51.94370 | 3.31442 | 39941 ft | 403 kts | 281° |
| 2026-05-03 23:11 | 51.95772 | 3.22650 | 39933 ft | 402 kts | 280° |
| 2026-05-03 23:11 | 51.97291 | 3.13935 | 39912 ft | 406 kts | 294° |
| 2026-05-03 23:11 | 51.98925 | 3.10172 | 39939 ft | 413 kts | 310° |
| 2026-05-03 23:12 | 52.01156 | 3.07205 | 39928 ft | 419 kts | 326° |
| 2026-05-03 23:12 | 52.03826 | 3.05243 | 39929 ft | 426 kts | 341° |
| 2026-05-03 23:12 | 52.06766 | 3.04532 | 39922 ft | 431 kts | 359° |
| 2026-05-03 23:12 | 52.09736 | 3.05238 | 39924 ft | 435 kts | 17° |
| 2026-05-03 23:13 | 52.11592 | 3.06492 | 39924 ft | 437 kts | 29° |
| 2026-05-03 23:13 | 52.14017 | 3.09448 | 39928 ft | 437 kts | 47° |
| 2026-05-03 23:13 | 52.15799 | 3.13416 | 39932 ft | 435 kts | 65° |
| 2026-05-03 23:13 | 52.16797 | 3.18028 | 39945 ft | 431 kts | 82° |
| 2026-05-03 23:14 | 52.17032 | 3.22861 | 39930 ft | 427 kts | 99° |
| 2026-05-03 23:14 | 52.15762 | 3.32217 | 39940 ft | 425 kts | 109° |
| 2026-05-03 23:15 | 52.14221 | 3.41545 | 39941 ft | 429 kts | 108° |
| 2026-05-03 23:15 | 52.12745 | 3.50994 | 39933 ft | 432 kts | 107° |
| 2026-05-03 23:15 | 52.11806 | 3.55618 | 39913 ft | 427 kts | 123° |
| 2026-05-03 23:16 | 52.10064 | 3.59428 | 39952 ft | 417 kts | 141° |
| 2026-05-03 23:16 | 52.07773 | 3.62216 | 39942 ft | 410 kts | 156° |
| 2026-05-03 23:16 | 52.05145 | 3.63900 | 39945 ft | 403 kts | 171° |
| 2026-05-03 23:16 | 52.02391 | 3.64404 | 39937 ft | 398 kts | 185° |
| 2026-05-03 23:17 | 51.99681 | 3.63715 | 39935 ft | 393 kts | 200° |
| 2026-05-03 23:17 | 51.97212 | 3.61910 | 39944 ft | 391 kts | 213° |
| 2026-05-03 23:17 | 51.95054 | 3.59249 | 39951 ft | 389 kts | 219° |
| 2026-05-03 23:17 | 51.93054 | 3.56362 | 39918 ft | 384 kts | 230° |
| 2026-05-03 23:18 | 51.91655 | 3.52660 | 39956 ft | 390 kts | 246° |
| 2026-05-03 23:18 | 51.90968 | 3.48361 | 39949 ft | 400 kts | 261° |
| 2026-05-03 23:18 | 51.90977 | 3.43811 | 39930 ft | 411 kts | 277° |
| 2026-05-03 23:19 | 51.92713 | 3.35072 | 39927 ft | 401 kts | 287° |
| 2026-05-03 23:19 | 51.94578 | 3.26763 | 39932 ft | 392 kts | 285° |
| 2026-05-03 23:20 | 51.96159 | 3.18312 | 39723 ft | 383 kts | 274° |
| 2026-05-03 23:20 | 51.96385 | 3.14109 | 39265 ft | 379 kts | 266° |
| 2026-05-03 23:20 | 51.96210 | 3.09743 | 38147 ft | 393 kts | 260° |
| 2026-05-03 23:20 | 51.95897 | 3.05306 | 37055 ft | 406 kts | 259° |
| 2026-05-03 23:21 | 51.95559 | 3.00763 | 36551 ft | 404 kts | 259° |
| 2026-05-03 23:21 | 51.95235 | 2.96286 | 36278 ft | 396 kts | 260° |
| 2026-05-03 23:21 | 51.94927 | 2.91888 | 35975 ft | 390 kts | 260° |
| 2026-05-03 23:21 | 51.94628 | 2.87533 | 35521 ft | 388 kts | 260° |
| 2026-05-03 23:22 | 51.94036 | 2.78867 | 34422 ft | 389 kts | 260° |
| 2026-05-03 23:22 | 51.93738 | 2.74497 | 33886 ft | 390 kts | 259° |
| 2026-05-03 23:22 | 51.93440 | 2.70156 | 33431 ft | 385 kts | 259° |
| 2026-05-03 23:23 | 51.93144 | 2.65872 | 33025 ft | 380 kts | 259° |
| 2026-05-03 23:23 | 51.92854 | 2.61647 | 32585 ft | 376 kts | 259° |
| 2026-05-03 23:23 | 51.92565 | 2.57447 | 32121 ft | 374 kts | 259° |
| 2026-05-03 23:23 | 51.92277 | 2.53273 | 31663 ft | 371 kts | 259° |
| 2026-05-03 23:24 | 51.91990 | 2.49136 | 31230 ft | 368 kts | 259° |
| 2026-05-03 23:24 | 51.91705 | 2.45041 | 30805 ft | 365 kts | 259° |
| 2026-05-03 23:24 | 51.91420 | 2.40963 | 30365 ft | 364 kts | 260° |
| 2026-05-03 23:24 | 51.91132 | 2.36883 | 29830 ft | 364 kts | 260° |
| 2026-05-03 23:25 | 51.90845 | 2.32823 | 29347 ft | 361 kts | 260° |
| 2026-05-03 23:25 | 51.90649 | 2.28782 | 28881 ft | 359 kts | 264° |
| 2026-05-03 23:25 | 51.90559 | 2.24758 | 28415 ft | 356 kts | 265° |
| 2026-05-03 23:25 | 51.90496 | 2.20814 | 27932 ft | 354 kts | 265° |
| 2026-05-03 23:26 | 51.90430 | 2.16847 | 27455 ft | 352 kts | 265° |
| 2026-05-03 23:26 | 51.90353 | 2.12901 | 26991 ft | 349 kts | 264° |
| 2026-05-03 23:26 | 51.90269 | 2.08983 | 26552 ft | 347 kts | 264° |
| 2026-05-03 23:26 | 51.90179 | 2.05093 | 26104 ft | 345 kts | 264° |
| 2026-05-03 23:27 | 51.90087 | 2.01229 | 25668 ft | 342 kts | 264° |
| 2026-05-03 23:27 | 51.89993 | 1.97389 | 25245 ft | 340 kts | 264° |
| 2026-05-03 23:27 | 51.89898 | 1.93573 | 24830 ft | 338 kts | 265° |
| 2026-05-03 23:27 | 51.89880 | 1.89770 | 24377 ft | 340 kts | 274° |
| 2026-05-03 23:28 | 51.90526 | 1.86074 | 23958 ft | 345 kts | 291° |
| 2026-05-03 23:28 | 51.91611 | 1.82613 | 23607 ft | 343 kts | 294° |
| 2026-05-03 23:28 | 51.92751 | 1.79229 | 23159 ft | 342 kts | 295° |
| 2026-05-03 23:28 | 51.93897 | 1.75865 | 22685 ft | 340 kts | 295° |
| 2026-05-03 23:29 | 51.95030 | 1.72517 | 22238 ft | 338 kts | 295° |
| 2026-05-03 23:29 | 51.96151 | 1.69173 | 21804 ft | 336 kts | 295° |
| 2026-05-03 23:29 | 51.97257 | 1.65847 | 21374 ft | 334 kts | 294° |
| 2026-05-03 23:29 | 51.98352 | 1.62533 | 20950 ft | 332 kts | 294° |
| 2026-05-03 23:30 | 51.99437 | 1.59232 | 20533 ft | 331 kts | 294° |
| 2026-05-03 23:30 | 52.00515 | 1.55945 | 20123 ft | 329 kts | 294° |
| 2026-05-03 23:30 | 52.01585 | 1.52675 | 19718 ft | 327 kts | 294° |
| 2026-05-03 23:30 | 52.02650 | 1.49415 | 19322 ft | 326 kts | 294° |
| 2026-05-03 23:31 | 52.03709 | 1.46168 | 18944 ft | 324 kts | 295° |
| 2026-05-03 23:31 | 52.04761 | 1.42938 | 18569 ft | 323 kts | 295° |
| 2026-05-03 23:31 | 52.05807 | 1.39724 | 18195 ft | 321 kts | 295° |
| 2026-05-03 23:31 | 52.06846 | 1.36524 | 17779 ft | 319 kts | 295° |
| 2026-05-03 23:32 | 52.07876 | 1.33355 | 17394 ft | 317 kts | 295° |
| 2026-05-03 23:32 | 52.08901 | 1.30193 | 16997 ft | 314 kts | 295° |
| 2026-05-03 23:32 | 52.09915 | 1.27061 | 16608 ft | 312 kts | 295° |
| 2026-05-03 23:32 | 52.10923 | 1.23937 | 16222 ft | 310 kts | 293° |
| 2026-05-03 23:33 | 52.11515 | 1.20679 | 15803 ft | 303 kts | 271° |
| 2026-05-03 23:33 | 52.11311 | 1.17269 | 15446 ft | 298 kts | 255° |
| 2026-05-03 23:33 | 52.10794 | 1.14032 | 15079 ft | 295 kts | 253° |
| 2026-05-03 23:33 | 52.10249 | 1.10858 | 14700 ft | 294 kts | 253° |
| 2026-05-03 23:34 | 52.09697 | 1.07669 | 14339 ft | 293 kts | 253° |
| 2026-05-03 23:34 | 52.09150 | 1.04485 | 13977 ft | 292 kts | 253° |
| 2026-05-03 23:34 | 52.08609 | 1.01314 | 13612 ft | 290 kts | 253° |
| 2026-05-03 23:34 | 52.08076 | 0.98166 | 13212 ft | 289 kts | 253° |
| 2026-05-03 23:35 | 52.07547 | 0.95026 | 12848 ft | 287 kts | 253° |
| 2026-05-03 23:35 | 52.07022 | 0.91910 | 12483 ft | 286 kts | 253° |
| 2026-05-03 23:35 | 52.06498 | 0.88798 | 12097 ft | 285 kts | 253° |
| 2026-05-03 23:35 | 52.05976 | 0.85705 | 11726 ft | 283 kts | 253° |
| 2026-05-03 23:36 | 52.05457 | 0.82624 | 11358 ft | 282 kts | 253° |
| 2026-05-03 23:36 | 52.04937 | 0.79552 | 10991 ft | 281 kts | 253° |
| 2026-05-03 23:36 | 52.04421 | 0.76499 | 10625 ft | 280 kts | 253° |
| 2026-05-03 23:36 | 52.03905 | 0.73453 | 10258 ft | 280 kts | 253° |
| 2026-05-03 23:37 | 52.03390 | 0.70413 | 9901 ft | 279 kts | 253° |
| 2026-05-03 23:37 | 52.02876 | 0.67382 | 9528 ft | 278 kts | 253° |
| 2026-05-03 23:37 | 52.02362 | 0.64369 | 9160 ft | 276 kts | 253° |
| 2026-05-03 23:37 | 52.01852 | 0.61379 | 8783 ft | 275 kts | 253° |
| 2026-05-03 23:38 | 52.01431 | 0.58366 | 8416 ft | 274 kts | 262° |
| 2026-05-03 23:38 | 52.01278 | 0.55287 | 8074 ft | 273 kts | 265° |
| 2026-05-03 23:38 | 52.01154 | 0.52214 | 7718 ft | 272 kts | 265° |
| 2026-05-03 23:38 | 52.01014 | 0.49159 | 7368 ft | 271 kts | 264° |
| 2026-05-03 23:39 | 52.00866 | 0.46112 | 7021 ft | 270 kts | 265° |
| 2026-05-03 23:39 | 52.00745 | 0.43080 | 6680 ft | 269 kts | 265° |
| 2026-05-03 23:39 | 52.00632 | 0.40061 | 6354 ft | 268 kts | 265° |
| 2026-05-03 23:39 | 52.00515 | 0.37048 | 6055 ft | 267 kts | 265° |
| 2026-05-03 23:40 | 52.00393 | 0.34026 | 6022 ft | 270 kts | 265° |
| 2026-05-03 23:40 | 52.00269 | 0.30996 | 6002 ft | 268 kts | 265° |
| 2026-05-03 23:40 | 52.00085 | 0.28015 | 5988 ft | 265 kts | 254° |
| 2026-05-03 23:40 | 51.99145 | 0.25548 | 6009 ft | 264 kts | 223° |
| 2026-05-03 23:41 | 51.97762 | 0.23560 | 6005 ft | 267 kts | 221° |
| 2026-05-03 23:41 | 51.96373 | 0.21560 | 5927 ft | 269 kts | 221° |
| 2026-05-03 23:41 | 51.94953 | 0.19480 | 5453 ft | 276 kts | 222° |
| 2026-05-03 23:41 | 51.93553 | 0.17399 | 5069 ft | 275 kts | 222° |
| 2026-05-03 23:42 | 51.92150 | 0.15296 | 4679 ft | 274 kts | 223° |
| 2026-05-03 23:42 | 51.90759 | 0.13201 | 4290 ft | 272 kts | 223° |
| 2026-05-03 23:42 | 51.89379 | 0.11119 | 3898 ft | 271 kts | 223° |
| 2026-05-03 23:42 | 51.88003 | 0.09045 | 3528 ft | 269 kts | 223° |
| 2026-05-03 23:43 | 51.86633 | 0.06980 | 3164 ft | 268 kts | 223° |
| 2026-05-03 23:43 | 51.85284 | 0.04939 | 2976 ft | 260 kts | 223° |
| 2026-05-03 23:43 | 51.83963 | 0.03044 | 2898 ft | 248 kts | 213° |
| 2026-05-03 23:43 | 51.82407 | 0.02193 | 2857 ft | 235 kts | 182° |
| 2026-05-03 23:44 | 51.80880 | 0.02777 | 2823 ft | 223 kts | 149° |
| 2026-05-03 23:44 | 51.79773 | 0.04476 | 2791 ft | 218 kts | 129° |
| 2026-05-03 23:44 | 51.79099 | 0.06589 | 2651 ft | 212 kts | 98° |
| 2026-05-03 23:44 | 51.79392 | 0.08826 | 2566 ft | 203 kts | 60° |
| 2026-05-03 23:45 | 51.80196 | 0.10815 | 2373 ft | 218 kts | 51° |
| 2026-05-03 23:45 | 51.81223 | 0.12591 | 2110 ft | 212 kts | 43° |
| 2026-05-03 23:45 | 51.82279 | 0.14155 | 1812 ft | 199 kts | 42° |
| 2026-05-03 23:45 | 51.83256 | 0.15612 | 1556 ft | 184 kts | 43° |
| 2026-05-03 23:46 | 51.84155 | 0.16963 | 1332 ft | 169 kts | 42° |
| 2026-05-03 23:46 | 51.84965 | 0.18178 | 1125 ft | 148 kts | 42° |
| 2026-05-03 23:46 | 51.85664 | 0.19228 | 936 ft | 131 kts | 42° |
| 2026-05-03 23:46 | 51.86319 | 0.20210 | 779 ft | 127 kts | 41° |
| 2026-05-03 23:47 | 51.86971 | 0.21189 | 630 ft | 128 kts | 41° |
| 2026-05-03 23:47 | 51.87617 | 0.22169 | 412 ft | 128 kts | 40° |
| 2026-05-03 23:47 | 51.88257 | 0.23115 | 336 ft | 112 kts | 41° |
| 2026-05-03 23:47 | 51.88685 | 0.23752 | 337 ft | 50 kts | 44° |
| 2026-05-03 23:48 | 51.88854 | 0.24112 | 347 ft | 37 kts | 66° |
| 2026-05-03 23:48 | 51.88890 | 0.24286 | 353 ft | 7 kts | 72° |
| 2026-05-03 23:48 | 51.88905 | 0.24362 | 351 ft | 7 kts | 72° |
| 2026-05-03 23:48 | 51.88906 | 0.24372 | 351 ft | 0 kts | 72° |
| 2026-05-03 23:49 | 51.88908 | 0.24377 | 350 ft | 4 kts | 72° |
| 2026-05-03 23:50 | 51.88922 | 0.24468 | 345 ft | 9 kts | 91° |
| 2026-05-03 23:50 | 51.88192 | 0.23023 | 334 ft | 0 kts | 40° |